createdAt,value
2023-05-14T00:02:14.899Z,6.43
2023-05-14T00:04:50.239Z,8.97
2023-05-14T00:07:19.234Z,4.60
2023-05-14T00:09:47.682Z,4.80
2023-05-14T00:12:16.452Z,5.72
2023-05-14T00:14:46.873Z,4.50
2023-05-14T00:17:17.564Z,4.88
2023-05-14T00:19:48.532Z,9.73
2023-05-14T00:22:21.352Z,6.15
2023-05-14T00:24:49.974Z,7.88
2023-05-14T00:27:22.855Z,7.53
2023-05-14T00:29:51.474Z,5.28
2023-05-14T00:32:22.217Z,7.10
2023-05-14T00:34:50.800Z,7.05
2023-05-14T00:37:25.182Z,7.28
2023-05-14T00:39:53.786Z,5.25
2023-05-14T00:42:22.210Z,5.90
2023-05-14T00:44:51.072Z,5.88
2023-05-14T00:47:22.315Z,8.80
2023-05-14T00:49:53.361Z,6.20
2023-05-14T00:52:22.554Z,6.20
2023-05-14T00:54:50.849Z,8.68
2023-05-14T00:57:19.960Z,6.78
2023-05-14T00:59:51.417Z,12.13
2023-05-14T01:02:20.784Z,8.60
2023-05-14T01:04:51.932Z,7.57
2023-05-14T01:07:43.207Z,6.03
2023-05-14T01:10:18.372Z,6.03
2023-05-14T01:13:02.308Z,7.53
2023-05-14T01:15:32.583Z,6.07
2023-05-14T01:18:02.905Z,8.98
2023-05-14T01:20:31.920Z,7.93
2023-05-14T01:23:00.413Z,5.65
2023-05-14T01:25:30.208Z,6.13
2023-05-14T01:28:18.869Z,6.45
2023-05-14T01:31:00.246Z,7.70
2023-05-14T01:33:30.463Z,7.20
2023-05-14T01:35:59.355Z,9.65
2023-05-14T01:38:30.746Z,7.80
2023-05-14T01:41:03.478Z,8.75
2023-05-14T01:43:34.286Z,9.25
2023-05-14T01:46:04.858Z,9.95
2023-05-14T01:48:37.801Z,7.40
2023-05-14T01:51:07.506Z,7.95
2023-05-14T01:53:35.914Z,5.85
2023-05-14T01:56:08.657Z,7.93
2023-05-14T01:58:38.060Z,8.32
2023-05-14T02:01:06.703Z,8.30
2023-05-14T02:03:38.448Z,9.95
2023-05-14T02:06:08.633Z,8.50
2023-05-14T02:08:40.191Z,7.38
2023-05-14T02:11:09.074Z,7.10
2023-05-14T02:13:40.827Z,6.43
2023-05-14T02:16:10.572Z,8.95
2023-05-14T02:18:39.798Z,7.82
2023-05-14T02:21:08.199Z,7.97
2023-05-14T02:23:41.599Z,7.82
2023-05-14T02:26:11.704Z,6.55
2023-05-14T02:28:43.518Z,6.38
2023-05-14T02:31:15.545Z,9.43
2023-05-14T02:33:47.472Z,5.88
2023-05-14T02:36:16.744Z,5.70
2023-05-14T02:38:50.888Z,6.72
2023-05-14T02:41:19.437Z,7.35
2023-05-14T02:43:50.652Z,6.43
2023-05-14T02:46:19.644Z,5.15
2023-05-14T02:48:48.390Z,9.10
2023-05-14T02:51:17.339Z,10.05
2023-05-14T02:53:46.424Z,8.88
2023-05-14T02:56:14.767Z,9.30
2023-05-14T02:58:46.322Z,5.35
2023-05-14T03:01:20.793Z,6.40
2023-05-14T03:03:56.721Z,6.57
2023-05-14T03:06:25.261Z,10.02
2023-05-14T03:08:54.118Z,6.28
2023-05-14T03:11:25.418Z,6.65
2023-05-14T03:13:55.728Z,7.25
2023-05-14T03:16:26.525Z,6.22
2023-05-14T03:18:56.465Z,6.95
2023-05-14T03:21:25.364Z,10.43
2023-05-14T03:23:54.596Z,6.97
2023-05-14T03:26:24.198Z,9.00
2023-05-14T03:28:54.673Z,5.57
2023-05-14T03:31:23.189Z,8.40
2023-05-14T03:33:52.334Z,7.68
2023-05-14T03:36:21.954Z,8.15
2023-05-14T03:38:53.401Z,6.60
2023-05-14T03:41:24.593Z,6.97
2023-05-14T03:43:56.117Z,7.57
2023-05-14T03:46:26.247Z,6.93
2023-05-14T03:48:55.084Z,9.30
2023-05-14T03:51:25.849Z,6.88
2023-05-14T03:53:55.185Z,7.82
2023-05-14T03:56:23.893Z,9.20
2023-05-14T03:58:55.300Z,6.80
2023-05-14T04:01:25.032Z,7.60
2023-05-14T04:03:58.068Z,6.53
2023-05-14T04:06:28.109Z,7.28
2023-05-14T04:09:00.388Z,6.43
2023-05-14T04:11:42.607Z,8.50
2023-05-14T04:14:13.359Z,7.32
2023-05-14T04:16:47.218Z,7.53
2023-05-14T04:19:17.042Z,7.25
2023-05-14T04:21:50.484Z,7.65
2023-05-14T04:24:20.314Z,9.32
2023-05-14T04:26:57.854Z,6.07
2023-05-14T04:29:30.482Z,5.55
2023-05-14T04:32:09.597Z,6.13
2023-05-14T04:34:59.631Z,7.22
2023-05-14T04:37:30.934Z,8.45
2023-05-14T04:39:59.441Z,5.85
2023-05-14T04:42:28.331Z,9.30
2023-05-14T04:44:57.084Z,12.55
2023-05-14T04:47:26.557Z,10.75
2023-05-14T04:49:54.979Z,8.00
2023-05-14T04:52:23.429Z,13.70
2023-05-14T04:54:52.516Z,9.70
2023-05-14T04:57:21.025Z,7.50
2023-05-14T04:59:49.576Z,10.82
2023-05-14T05:02:18.319Z,9.70
2023-05-14T05:04:54.660Z,7.88
2023-05-14T05:07:30.223Z,9.30
2023-05-14T05:10:00.802Z,11.13
2023-05-14T05:12:31.230Z,10.02
2023-05-14T05:15:02.407Z,8.13
2023-05-14T05:17:35.257Z,8.38
2023-05-14T05:20:05.352Z,9.25
2023-05-14T05:22:37.176Z,11.60
2023-05-14T05:25:06.505Z,11.50
2023-05-14T05:27:36.936Z,10.98
2023-05-14T05:30:05.427Z,9.05
2023-05-14T05:32:39.501Z,8.80
2023-05-14T05:35:08.178Z,9.30
2023-05-14T05:37:42.296Z,9.80
2023-05-14T05:40:11.301Z,9.63
2023-05-14T05:42:42.548Z,8.93
2023-05-14T05:45:15.650Z,9.10
2023-05-14T05:47:52.891Z,14.45
2023-05-14T05:50:22.560Z,9.90
2023-05-14T05:52:52.055Z,11.63
2023-05-14T05:55:22.990Z,10.10
2023-05-14T05:57:51.368Z,10.55
2023-05-14T06:00:21.244Z,9.80
2023-05-14T06:03:08.834Z,12.23
2023-05-14T06:05:46.756Z,13.50
2023-05-14T06:08:18.363Z,8.23
2023-05-14T06:10:57.377Z,11.77
2023-05-14T06:13:25.774Z,9.63
2023-05-14T06:15:57.403Z,12.02
2023-05-14T06:18:25.835Z,9.68
2023-05-14T06:20:56.623Z,8.02
2023-05-14T06:23:24.912Z,10.05
2023-05-14T06:25:53.458Z,6.32
2023-05-14T06:28:22.649Z,9.40
2023-05-14T06:30:54.007Z,11.10
2023-05-14T06:33:31.226Z,11.02
2023-05-14T06:36:04.680Z,7.38
2023-05-14T06:38:37.922Z,7.88
2023-05-14T06:41:08.266Z,11.77
2023-05-14T06:43:40.786Z,7.93
2023-05-14T06:46:10.652Z,9.65
2023-05-14T06:48:39.303Z,8.05
2023-05-14T06:51:08.290Z,8.43
2023-05-14T06:53:38.488Z,6.20
2023-05-14T06:56:07.959Z,6.50
2023-05-14T06:58:37.471Z,6.07
2023-05-14T07:01:06.595Z,8.90
2023-05-14T07:03:46.449Z,6.45
2023-05-14T07:06:15.003Z,6.75
2023-05-14T07:08:47.613Z,6.18
2023-05-14T07:11:16.299Z,6.80
2023-05-14T07:13:46.426Z,7.40
2023-05-14T07:16:15.403Z,6.45
2023-05-14T07:18:46.504Z,7.03
2023-05-14T07:21:15.229Z,6.57
2023-05-14T07:23:47.114Z,10.05
2023-05-14T07:26:17.937Z,8.73
2023-05-14T07:28:47.428Z,7.10
2023-05-14T07:31:16.828Z,5.63
2023-05-14T07:33:54.163Z,5.57
2023-05-14T07:36:24.595Z,5.70
2023-05-14T07:38:56.388Z,6.40
2023-05-14T07:41:28.618Z,21.17
2023-05-14T07:43:59.387Z,4.28
2023-05-14T07:46:31.063Z,4.07
2023-05-14T07:49:00.129Z,3.83
2023-05-14T07:51:33.436Z,4.05
2023-05-14T07:54:02.510Z,3.70
2023-05-14T07:56:37.972Z,4.25
2023-05-14T07:59:11.279Z,3.75
2023-05-14T08:01:42.586Z,3.60
2023-05-14T08:04:15.162Z,3.42
2023-05-14T08:06:48.463Z,2.33
2023-05-14T08:09:19.190Z,4.28
2023-05-14T08:11:52.342Z,2.85
2023-05-14T08:14:25.716Z,2.20
2023-05-14T08:17:08.731Z,2.40
2023-05-14T08:19:53.716Z,2.05
2023-05-14T08:22:36.421Z,2.45
2023-05-14T08:25:06.433Z,1.92
2023-05-14T08:27:45.664Z,1.65
2023-05-14T08:30:14.358Z,1.67
2023-05-14T08:33:01.963Z,1.75
2023-05-14T08:35:34.799Z,2.20
2023-05-14T08:38:07.208Z,1.90
2023-05-14T08:40:37.276Z,1.80
2023-05-14T08:43:07.358Z,2.67
2023-05-14T08:45:40.640Z,1.90
2023-05-14T08:48:16.286Z,1.73
2023-05-14T08:50:46.459Z,1.88
2023-05-14T08:53:15.097Z,2.30
2023-05-14T08:55:43.976Z,2.72
2023-05-14T08:58:12.317Z,3.28
2023-05-14T09:00:42.125Z,1.95
2023-05-14T09:03:28.017Z,1.80
2023-05-14T09:06:18.056Z,2.08
2023-05-14T09:09:07.093Z,1.92
2023-05-14T09:11:47.805Z,1.85
2023-05-14T09:14:17.016Z,1.73
2023-05-14T09:16:51.060Z,2.92
2023-05-14T09:19:22.531Z,1.80
2023-05-14T09:21:51.460Z,1.85
2023-05-14T09:24:25.038Z,2.20
2023-05-14T09:26:54.446Z,1.60
2023-05-14T09:29:25.670Z,2.22
2023-05-14T09:31:54.583Z,3.75
2023-05-14T09:34:27.675Z,2.03
2023-05-14T09:37:00.382Z,2.03
2023-05-14T09:39:30.052Z,1.90
2023-05-14T09:42:04.858Z,1.80
2023-05-14T09:44:40.175Z,1.80
2023-05-14T09:47:11.022Z,1.40
2023-05-14T09:49:46.911Z,1.75
2023-05-14T09:52:15.721Z,1.58
2023-05-14T09:54:52.976Z,1.48
2023-05-14T09:57:21.745Z,1.80
2023-05-14T09:59:52.409Z,1.70
2023-05-14T10:02:29.624Z,2.38
2023-05-14T10:05:01.794Z,2.40
2023-05-14T10:07:45.496Z,1.40
2023-05-14T10:10:20.037Z,1.80
2023-05-14T10:13:08.732Z,1.83
2023-05-14T10:15:56.532Z,1.70
2023-05-14T10:18:31.024Z,1.98
2023-05-14T10:21:05.541Z,2.60
2023-05-14T10:23:37.869Z,2.17
2023-05-14T10:26:06.832Z,3.58
2023-05-14T10:28:37.692Z,1.40
2023-05-14T10:31:13.773Z,1.23
2023-05-14T10:33:50.684Z,1.35
2023-05-14T10:36:23.260Z,3.65
2023-05-14T10:38:56.312Z,1.33
2023-05-14T10:41:27.098Z,1.40
2023-05-14T10:44:00.888Z,8.63
2023-05-14T10:46:33.089Z,1.58
2023-05-14T10:49:02.407Z,1.40
2023-05-14T10:51:35.819Z,1.67
2023-05-14T10:54:09.142Z,1.77
2023-05-14T10:56:37.808Z,1.75
2023-05-14T10:59:12.560Z,1.70
2023-05-14T11:01:41.917Z,2.00
2023-05-14T11:04:24.756Z,2.10
2023-05-14T11:06:54.516Z,1.50
2023-05-14T11:09:27.537Z,1.23
2023-05-14T11:11:58.646Z,1.27
2023-05-14T11:14:29.990Z,1.65
2023-05-14T11:16:58.942Z,1.42
2023-05-14T11:19:28.258Z,1.58
2023-05-14T11:22:03.771Z,3.63
2023-05-14T11:24:38.731Z,1.85
2023-05-14T11:27:09.149Z,1.75
2023-05-14T11:29:40.759Z,2.30
2023-05-14T11:32:09.171Z,0.93
2023-05-14T11:34:39.703Z,1.40
2023-05-14T11:37:09.171Z,2.88
2023-05-14T11:39:38.706Z,1.35
2023-05-14T11:42:11.828Z,1.33
2023-05-14T11:44:40.973Z,1.17
2023-05-14T11:47:10.342Z,2.78
2023-05-14T11:49:41.516Z,1.13
2023-05-14T11:52:11.664Z,1.50
2023-05-14T11:54:44.836Z,1.45
2023-05-14T11:57:14.574Z,1.70
2023-05-14T11:59:57.639Z,1.50
2023-05-14T12:02:35.734Z,2.33
2023-05-14T12:05:10.518Z,1.58
2023-05-14T12:10:13.241Z,2.50
2023-05-14T12:12:49.111Z,2.08
2023-05-14T12:15:21.806Z,1.95
2023-05-14T12:18:23.033Z,1.60
2023-05-14T12:20:56.267Z,2.28
2023-05-14T12:23:29.460Z,3.63
2023-05-14T12:26:06.016Z,1.60
2023-05-14T12:28:38.610Z,1.30
2023-05-14T12:31:07.360Z,3.33
2023-05-14T12:33:44.409Z,2.13
2023-05-14T12:36:22.106Z,1.17
2023-05-14T12:39:01.670Z,1.98
2023-05-14T12:41:38.351Z,1.33
2023-05-14T12:44:07.436Z,1.15
2023-05-14T12:46:37.528Z,1.55
2023-05-14T12:49:09.485Z,3.15
2023-05-14T12:51:41.532Z,3.10
2023-05-14T12:54:11.949Z,1.75
2023-05-14T12:56:40.759Z,1.27
2023-05-14T12:59:09.461Z,1.30
2023-05-14T13:01:38.214Z,2.33
2023-05-14T13:04:12.468Z,1.30
2023-05-14T13:06:43.257Z,1.83
2023-05-14T13:09:17.457Z,1.10
2023-05-14T13:11:48.247Z,1.35
2023-05-14T13:14:18.308Z,1.60
2023-05-14T13:16:48.073Z,2.28
2023-05-14T13:19:17.391Z,1.98
2023-05-14T13:21:50.231Z,2.97
2023-05-14T13:24:24.945Z,1.50
2023-05-14T13:26:56.512Z,2.03
2023-05-14T13:29:31.580Z,1.33
2023-05-14T13:32:01.831Z,2.42
2023-05-14T13:34:32.940Z,1.30
2023-05-14T13:37:04.285Z,1.40
2023-05-14T13:39:33.852Z,6.03
2023-05-14T13:42:02.069Z,1.52
2023-05-14T13:44:37.637Z,1.45
2023-05-14T13:47:11.566Z,1.15
2023-05-14T13:49:42.102Z,1.40
2023-05-14T13:52:18.459Z,1.40
2023-05-14T13:54:47.275Z,3.00
2023-05-14T13:57:16.898Z,1.55
2023-05-14T13:59:48.290Z,1.02
2023-05-14T14:02:16.619Z,1.73
2023-05-14T14:04:46.751Z,0.98
2023-05-14T14:07:15.671Z,2.22
2023-05-14T14:10:04.852Z,1.35
2023-05-14T14:12:52.773Z,1.23
2023-05-14T14:15:40.390Z,0.95
2023-05-14T14:18:28.074Z,1.40
2023-05-14T14:21:01.550Z,1.55
2023-05-14T14:23:37.411Z,1.73
2023-05-14T14:26:16.851Z,1.30
2023-05-14T14:28:58.717Z,4.07
2023-05-14T14:31:50.718Z,0.88
2023-05-14T14:37:17.375Z,1.25
2023-05-14T14:40:07.222Z,1.48
2023-05-14T14:42:54.838Z,1.10
2023-05-14T14:45:42.796Z,2.25
2023-05-14T14:48:33.778Z,2.67
2023-05-14T14:51:21.359Z,2.00
2023-05-14T14:53:58.783Z,1.67
2023-05-14T14:56:40.694Z,1.20
2023-05-14T14:59:13.680Z,1.53
2023-05-14T15:01:55.288Z,1.50
2023-05-14T15:04:42.866Z,1.08
2023-05-14T15:07:33.270Z,1.02
2023-05-14T15:10:20.983Z,1.40
2023-05-14T15:13:11.420Z,1.00
2023-05-14T15:15:57.719Z,1.40
2023-05-14T15:18:45.373Z,1.27
2023-05-14T15:21:37.396Z,1.27
2023-05-14T15:24:26.118Z,1.88
2023-05-14T15:27:13.777Z,1.40
2023-05-14T15:30:01.333Z,2.40
2023-05-14T15:32:48.983Z,1.70
2023-05-14T15:35:36.734Z,3.78
2023-05-14T15:38:24.310Z,1.73
2023-05-14T15:41:11.925Z,3.25
2023-05-14T15:43:50.638Z,1.10
2023-05-14T15:46:22.756Z,1.13
2023-05-14T15:48:51.582Z,1.63
2023-05-14T15:51:19.903Z,1.35
2023-05-14T15:53:51.041Z,8.27
2023-05-14T15:56:29.493Z,1.88
2023-05-14T15:58:58.352Z,2.15
2023-05-14T16:01:31.041Z,1.00
2023-05-14T16:04:01.489Z,1.80
2023-05-14T16:06:34.733Z,1.40
2023-05-14T16:09:05.153Z,1.67
2023-05-14T16:11:41.660Z,4.03
2023-05-14T16:14:12.649Z,1.88
2023-05-14T16:16:41.815Z,1.95
2023-05-14T16:19:14.271Z,3.03
2023-05-14T16:21:45.963Z,1.90
2023-05-14T16:24:27.116Z,2.00
2023-05-14T16:26:55.384Z,2.22
2023-05-14T16:29:34.764Z,1.50
2023-05-14T16:32:07.412Z,1.42
2023-05-14T16:37:15.824Z,1.35
2023-05-14T16:39:50.954Z,1.70
2023-05-14T16:42:23.086Z,1.70
2023-05-14T16:44:53.681Z,1.17
2023-05-14T16:47:27.603Z,1.80
2023-05-14T16:50:00.390Z,3.85
2023-05-14T16:52:33.013Z,2.60
2023-05-14T16:55:01.424Z,1.88
2023-05-14T16:57:36.394Z,1.63
2023-05-14T17:00:07.673Z,1.65
2023-05-14T17:02:55.418Z,1.45
2023-05-14T17:05:24.576Z,1.13
2023-05-14T17:07:53.547Z,3.42
2023-05-14T17:10:23.840Z,1.88
2023-05-14T17:12:52.170Z,2.97
2023-05-14T17:15:21.573Z,1.75
2023-05-14T17:18:00.084Z,2.05
2023-05-14T17:20:30.593Z,2.65
2023-05-14T17:22:58.994Z,2.30
2023-05-14T17:25:28.044Z,1.88
2023-05-14T17:28:00.309Z,1.80
2023-05-14T17:30:34.042Z,4.05
2023-05-14T17:33:23.738Z,1.65
2023-05-14T17:35:52.227Z,1.67
2023-05-14T17:38:22.064Z,2.10
2023-05-14T17:40:51.268Z,1.67
2023-05-14T17:43:24.952Z,1.63
2023-05-14T17:45:54.875Z,2.55
2023-05-14T17:50:59.024Z,1.48
2023-05-14T17:53:28.117Z,1.63
2023-05-14T17:55:58.495Z,1.75
2023-05-14T17:58:26.797Z,1.42
2023-05-14T18:00:55.205Z,2.05
2023-05-14T18:03:35.558Z,1.60
2023-05-14T18:06:05.687Z,2.45
2023-05-14T18:08:35.235Z,2.65
2023-05-14T18:11:06.557Z,1.50
2023-05-14T18:13:35.795Z,1.63
2023-05-14T18:16:04.965Z,1.70
2023-05-14T18:18:35.597Z,1.40
2023-05-14T18:21:05.251Z,4.75
2023-05-14T18:23:33.871Z,1.70
2023-05-14T18:26:02.708Z,1.70
2023-05-14T18:28:31.574Z,1.80
2023-05-14T18:31:00.291Z,3.38
2023-05-14T18:33:39.656Z,1.85
2023-05-14T18:36:08.034Z,1.88
2023-05-14T18:38:37.028Z,2.13
2023-05-14T18:41:10.155Z,1.98
2023-05-14T18:43:38.894Z,2.05
2023-05-14T18:46:08.124Z,1.83
2023-05-14T18:48:37.533Z,2.17
2023-05-14T18:51:07.546Z,2.45
2023-05-14T18:53:37.224Z,1.60
2023-05-14T18:56:09.563Z,1.35
2023-05-14T18:58:41.009Z,2.15
2023-05-14T19:01:10.363Z,1.80
2023-05-14T19:03:49.951Z,2.30
2023-05-14T19:06:18.847Z,3.15
2023-05-14T19:08:55.793Z,1.80
2023-05-14T19:11:26.489Z,1.60
2023-05-14T19:13:57.333Z,2.63
2023-05-14T19:16:29.411Z,1.70
2023-05-14T19:18:58.166Z,2.50
2023-05-14T19:21:27.314Z,3.15
2023-05-14T19:23:57.855Z,5.53
2023-05-14T19:26:31.583Z,9.80
2023-05-14T19:29:02.609Z,3.85
2023-05-14T19:31:31.269Z,2.55
2023-05-14T19:34:02.492Z,2.83
2023-05-14T19:36:32.874Z,2.35
2023-05-14T19:39:03.698Z,3.22
2023-05-14T19:41:35.937Z,2.75
2023-05-14T19:44:05.652Z,2.53
2023-05-14T19:46:35.062Z,2.10
2023-05-14T19:49:07.479Z,2.13
2023-05-14T19:54:06.714Z,2.75
2023-05-14T19:56:35.947Z,3.22
2023-05-14T19:59:04.820Z,2.33
2023-05-14T20:01:34.230Z,2.50
2023-05-14T20:04:07.304Z,2.55
2023-05-14T20:06:40.270Z,2.40
2023-05-14T20:09:08.599Z,2.47
2023-05-14T20:11:39.286Z,2.22
2023-05-14T20:14:12.745Z,2.55
2023-05-14T20:16:41.650Z,2.60
2023-05-14T20:19:14.086Z,2.50
2023-05-14T20:21:47.718Z,6.43
2023-05-14T20:24:19.272Z,2.47
2023-05-14T20:26:49.328Z,3.47
2023-05-14T20:29:17.668Z,2.95
2023-05-14T20:31:54.029Z,4.72
2023-05-14T20:34:25.953Z,2.60
2023-05-14T20:36:57.531Z,2.85
2023-05-14T20:39:26.002Z,2.92
2023-05-14T20:41:54.477Z,2.65
2023-05-14T20:44:28.266Z,2.40
2023-05-14T20:47:01.579Z,2.88
2023-05-14T20:49:33.342Z,2.58
2023-05-14T20:52:04.194Z,2.67
2023-05-14T20:54:33.354Z,2.83
2023-05-14T20:57:01.856Z,3.05
2023-05-14T20:59:30.937Z,4.97
2023-05-14T21:01:59.575Z,2.80
2023-05-14T21:04:32.140Z,2.60
2023-05-14T21:07:01.184Z,2.60
2023-05-14T21:09:30.899Z,3.30
2023-05-14T21:12:01.450Z,2.20
2023-05-14T21:14:35.197Z,2.80
2023-05-14T21:17:04.863Z,2.47
2023-05-14T21:19:36.069Z,2.75
2023-05-14T21:22:09.143Z,2.70
2023-05-14T21:24:37.713Z,2.78
2023-05-14T21:27:06.623Z,2.97
2023-05-14T21:29:35.284Z,3.20
2023-05-14T21:32:04.538Z,3.13
2023-05-14T21:34:34.432Z,3.35
2023-05-14T21:37:03.784Z,3.95
2023-05-14T21:39:34.885Z,2.95
2023-05-14T21:42:03.127Z,3.30
2023-05-14T21:44:43.320Z,2.90
2023-05-14T21:47:16.452Z,2.92
2023-05-14T21:49:46.055Z,3.42
2023-05-14T21:52:14.885Z,3.42
2023-05-14T21:54:48.448Z,3.42
2023-05-14T21:57:19.162Z,3.90
2023-05-14T21:59:50.258Z,3.88
2023-05-14T22:02:18.913Z,4.15
2023-05-14T22:04:47.160Z,3.50
2023-05-14T22:07:15.972Z,3.72
2023-05-14T22:09:45.683Z,3.55
2023-05-14T22:12:16.791Z,3.35
2023-05-14T22:14:48.255Z,3.13
2023-05-14T22:17:17.217Z,3.40
2023-05-14T22:19:49.332Z,3.55
2023-05-14T22:22:18.248Z,3.92
2023-05-14T22:24:49.583Z,5.18
2023-05-14T22:27:21.991Z,3.67
2023-05-14T22:29:50.385Z,3.50
2023-05-14T22:32:18.621Z,4.95
2023-05-14T22:34:50.708Z,4.22
2023-05-14T22:37:19.230Z,3.97
2023-05-14T22:39:49.433Z,3.92
2023-05-14T22:42:20.191Z,3.28
2023-05-14T22:44:50.555Z,3.30
2023-05-14T22:47:19.767Z,3.97
2023-05-14T22:49:52.712Z,3.58
2023-05-14T22:52:24.118Z,3.80
2023-05-14T22:54:53.242Z,3.78
2023-05-14T22:57:25.206Z,3.30
2023-05-14T22:59:54.623Z,4.25
2023-05-14T23:02:23.281Z,3.67
2023-05-14T23:04:54.429Z,3.90
2023-05-14T23:07:25.569Z,3.78
2023-05-14T23:09:53.783Z,4.00
2023-05-14T23:12:22.726Z,4.45
2023-05-14T23:14:53.598Z,4.35
2023-05-14T23:17:22.660Z,5.10
2023-05-14T23:19:53.995Z,4.22
2023-05-14T23:22:22.747Z,3.88
2023-05-14T23:24:51.128Z,4.35
2023-05-14T23:27:22.578Z,5.07
2023-05-14T23:29:52.265Z,5.50
2023-05-14T23:32:23.396Z,5.10
2023-05-14T23:34:54.647Z,3.60
2023-05-14T23:37:25.555Z,4.20
2023-05-14T23:39:56.596Z,8.73
2023-05-14T23:42:25.797Z,4.60
2023-05-14T23:44:55.073Z,5.07
2023-05-14T23:47:26.507Z,4.72
2023-05-14T23:49:55.467Z,4.53
2023-05-14T23:52:24.222Z,3.90
2023-05-14T23:54:54.079Z,4.68
2023-05-14T23:57:22.868Z,5.13
2023-05-14T23:59:51.374Z,4.47
